Wood Springs, Texas
Current Conditions -  °F | °C
As of 7:04 AM on Monday 22 Dec 2014 (Local Time) from KTYR Reporting Station
Overcast Overcast  
Wind Chill: 58°   Ceiling: 1600
Heat Index: 58°   Visibility: 10mi
Dew Point: 53°   Wind: 16mph
Humidity: 84%   Direction: 190°S
Pressure: 29.67"   Gusts: NA
Location:  32.5326°N, 95.4249°W
Report Text: KTYR 221304Z 19014KT 10SM OVC016 14/12 A2967 RMK AO2 T01440117
Loading
Personal Weather Stations






























Interactive Weather Map New forecast layout! Learn more

10-Day Weather Forecast

Advertisements
Track Severe Weather on mobile